createdAt,value
2023-05-12T00:01:49.411Z,5.47
2023-05-12T00:11:51.424Z,5.90
2023-05-12T00:21:54.685Z,7.18
2023-05-12T00:31:56.716Z,6.72
2023-05-12T00:42:00.118Z,6.63
2023-05-12T00:52:03.197Z,10.35
2023-05-12T01:02:06.954Z,5.53
2023-05-12T01:12:09.016Z,8.43
2023-05-12T01:22:13.122Z,6.50
2023-05-12T01:32:16.723Z,6.68
2023-05-12T01:42:18.704Z,7.50
2023-05-12T01:52:21.996Z,9.40
2023-05-12T02:02:24.007Z,16.70
2023-05-12T02:12:27.517Z,17.73
2023-05-12T02:22:29.465Z,23.73
2023-05-12T02:32:32.804Z,38.78
2023-05-12T02:42:34.772Z,35.83
2023-05-12T02:52:39.321Z,38.10
2023-05-12T03:02:41.781Z,35.53
2023-05-12T03:12:45.195Z,32.42
2023-05-12T03:22:47.166Z,24.38
2023-05-12T03:32:50.487Z,24.67
2023-05-12T03:42:52.516Z,22.90
2023-05-12T03:52:56.135Z,25.13
2023-05-12T04:02:58.354Z,27.63
2023-05-12T04:13:01.722Z,29.35
2023-05-12T04:23:04.019Z,34.97
2023-05-12T04:33:07.359Z,26.65
2023-05-12T04:43:09.334Z,31.98
2023-05-12T04:53:12.752Z,20.42
2023-05-12T05:03:14.919Z,13.88
2023-05-12T05:13:18.297Z,13.02
2023-05-12T05:23:20.279Z,17.60
2023-05-12T05:33:23.759Z,16.73
2023-05-12T05:43:25.741Z,18.67
2023-05-12T05:53:29.181Z,15.70
2023-05-12T06:03:31.252Z,21.50
2023-05-12T06:13:34.655Z,19.92
2023-05-12T06:23:36.684Z,20.02
2023-05-12T06:33:40.166Z,26.25
2023-05-12T06:43:42.102Z,15.00
2023-05-12T06:53:45.396Z,15.02
2023-05-12T07:03:47.354Z,20.30
2023-05-12T07:13:51.804Z,13.23
2023-05-12T07:23:53.825Z,10.77
2023-05-12T07:33:57.124Z,11.75
2023-05-12T07:43:59.030Z,9.35
2023-05-12T07:54:02.386Z,7.45
2023-05-12T08:04:04.593Z,9.98
2023-05-12T08:14:08.529Z,8.73
2023-05-12T08:24:10.490Z,5.25
2023-05-12T08:34:14.442Z,7.32
2023-05-12T08:44:18.645Z,8.25
2023-05-12T08:54:23.886Z,4.70
2023-05-12T09:04:25.875Z,4.18
2023-05-12T09:14:34.556Z,6.32
2023-05-12T09:24:37.125Z,7.47
2023-05-12T09:34:40.473Z,5.93
2023-05-12T09:44:42.428Z,5.35
2023-05-12T09:54:47.445Z,5.38
2023-05-12T10:04:52.805Z,3.42
2023-05-12T10:14:57.991Z,6.55
2023-05-12T10:25:01.510Z,8.95
2023-05-12T10:35:12.125Z,3.20
2023-05-12T10:45:18.763Z,3.05
2023-05-12T10:55:31.497Z,7.72
2023-05-12T11:05:34.967Z,5.78
2023-05-12T11:15:38.769Z,5.90
2023-05-12T11:25:44.460Z,8.02
2023-05-12T11:35:48.125Z,4.50
2023-05-12T11:45:50.140Z,3.95
2023-05-12T11:55:55.413Z,1.98
2023-05-12T12:05:58.992Z,4.78
2023-05-12T12:16:02.590Z,6.38
2023-05-12T12:26:04.659Z,3.53
2023-05-12T12:36:08.662Z,5.53
2023-05-12T12:46:10.769Z,5.38
2023-05-12T12:56:14.106Z,14.32
2023-05-12T13:06:16.103Z,7.32
2023-05-12T13:16:19.444Z,7.95
2023-05-12T13:26:21.471Z,7.57
2023-05-12T13:36:24.960Z,6.05
2023-05-12T13:46:26.993Z,6.20
2023-05-12T13:56:30.359Z,9.18
2023-05-12T14:06:32.326Z,10.32
2023-05-12T14:16:35.775Z,13.70
2023-05-12T14:26:37.694Z,12.85
2023-05-12T14:36:40.994Z,16.88
2023-05-12T14:46:42.911Z,16.58
2023-05-12T14:56:46.218Z,15.43
2023-05-12T15:06:48.167Z,17.85
2023-05-12T15:16:51.808Z,16.67
2023-05-12T15:26:53.810Z,13.68
2023-05-12T15:36:57.108Z,17.88
2023-05-12T15:46:59.101Z,20.25
2023-05-12T15:57:02.566Z,13.60
2023-05-12T16:07:04.932Z,22.58
2023-05-12T16:17:08.273Z,24.45
2023-05-12T16:27:10.364Z,14.63
2023-05-12T16:37:13.651Z,18.80
2023-05-12T16:47:15.621Z,26.67
2023-05-12T16:57:18.957Z,18.05
2023-05-12T17:07:27.312Z,20.98
2023-05-12T17:17:30.698Z,21.45
2023-05-12T17:27:32.707Z,29.45
2023-05-12T17:37:36.513Z,17.63
2023-05-12T17:47:38.540Z,30.35
2023-05-12T17:58:20.811Z,23.15
2023-05-12T18:08:24.135Z,23.73
2023-05-12T18:18:26.202Z,23.75
2023-05-12T18:28:29.729Z,30.02
2023-05-12T18:38:31.637Z,21.85
2023-05-12T18:48:34.950Z,20.35
2023-05-12T18:58:36.885Z,23.98
2023-05-12T19:08:40.174Z,29.30
2023-05-12T19:18:42.197Z,19.80
2023-05-12T19:28:45.577Z,29.08
2023-05-12T19:38:47.509Z,29.30
2023-05-12T19:48:50.998Z,24.15
2023-05-12T19:58:53.018Z,18.88
2023-05-12T20:08:56.352Z,26.73
2023-05-12T20:18:59.161Z,23.00
2023-05-12T20:29:03.920Z,19.10
2023-05-12T20:39:05.874Z,27.38
2023-05-12T20:49:09.181Z,26.65
2023-05-12T20:59:11.077Z,23.52
2023-05-12T21:09:14.421Z,25.33
2023-05-12T21:19:16.362Z,22.92
2023-05-12T21:29:19.683Z,22.02
2023-05-12T21:39:21.745Z,26.58
2023-05-12T21:49:25.194Z,20.38
2023-05-12T21:59:27.248Z,19.45
2023-05-12T22:09:31.249Z,22.75
2023-05-12T22:19:58.215Z,22.75
2023-05-12T22:30:01.577Z,19.23
2023-05-12T22:40:03.670Z,18.45
2023-05-12T22:50:07.806Z,19.25
2023-05-12T23:00:10.567Z,18.98
2023-05-12T23:10:14.003Z,18.13
2023-05-12T23:20:15.933Z,24.52
2023-05-12T23:30:19.397Z,17.80
2023-05-12T23:40:21.634Z,23.13
2023-05-12T23:50:25.345Z,19.70
